sensor_id;sensor_type;location;lat;lon;timestamp;P1;durP1;ratioP1;P2;durP2;ratioP2
76357;SDS011;65185;21.060;105.826;2023-01-10T00:00:33;205.35;;;115.40;;
76357;SDS011;65185;21.060;105.826;2023-01-10T00:03:08;210.70;;;117.88;;
76357;SDS011;65185;21.060;105.826;2023-01-10T00:05:42;213.68;;;119.15;;
76357;SDS011;65185;21.060;105.826;2023-01-10T00:08:13;236.02;;;124.38;;
76357;SDS011;65185;21.060;105.826;2023-01-10T00:10:41;212.40;;;118.43;;
76357;SDS011;65185;21.060;105.826;2023-01-10T00:13:15;218.40;;;117.93;;
76357;SDS011;65185;21.060;105.826;2023-01-10T00:15:49;221.23;;;119.32;;
76357;SDS011;65185;21.060;105.826;2023-01-10T00:18:16;215.93;;;119.97;;
76357;SDS011;65185;21.060;105.826;2023-01-10T00:20:43;233.80;;;125.10;;
76357;SDS011;65185;21.060;105.826;2023-01-10T00:23:11;230.90;;;125.35;;
76357;SDS011;65185;21.060;105.826;2023-01-10T00:25:39;224.30;;;122.68;;
76357;SDS011;65185;21.060;105.826;2023-01-10T00:28:06;244.90;;;127.13;;
76357;SDS011;65185;21.060;105.826;2023-01-10T00:30:42;227.98;;;124.20;;
76357;SDS011;65185;21.060;105.826;2023-01-10T00:33:12;222.52;;;120.50;;
76357;SDS011;65185;21.060;105.826;2023-01-10T00:35:45;226.50;;;125.40;;
76357;SDS011;65185;21.060;105.826;2023-01-10T00:38:13;240.95;;;127.88;;
76357;SDS011;65185;21.060;105.826;2023-01-10T00:40:40;260.63;;;134.32;;
76357;SDS011;65185;21.060;105.826;2023-01-10T00:43:08;257.63;;;132.57;;
76357;SDS011;65185;21.060;105.826;2023-01-10T00:45:53;235.77;;;129.00;;
76357;SDS011;65185;21.060;105.826;2023-01-10T00:48:21;247.82;;;128.10;;
76357;SDS011;65185;21.060;105.826;2023-01-10T00:50:48;223.57;;;122.32;;
76357;SDS011;65185;21.060;105.826;2023-01-10T00:53:15;228.32;;;122.57;;
76357;SDS011;65185;21.060;105.826;2023-01-10T00:55:42;234.45;;;125.93;;
76357;SDS011;65185;21.060;105.826;2023-01-10T00:58:09;233.40;;;126.22;;
76357;SDS011;65185;21.060;105.826;2023-01-10T01:00:38;256.80;;;135.10;;
76357;SDS011;65185;21.060;105.826;2023-01-10T01:03:05;252.38;;;130.35;;
76357;SDS011;65185;21.060;105.826;2023-01-10T01:05:38;225.55;;;123.10;;
76357;SDS011;65185;21.060;105.826;2023-01-10T01:08:06;217.20;;;119.00;;
76357;SDS011;65185;21.060;105.826;2023-01-10T01:10:33;230.88;;;124.85;;
76357;SDS011;65185;21.060;105.826;2023-01-10T01:15:41;224.80;;;122.47;;
76357;SDS011;65185;21.060;105.826;2023-01-10T01:18:09;234.00;;;124.45;;
76357;SDS011;65185;21.060;105.826;2023-01-10T01:20:38;219.45;;;123.63;;
76357;SDS011;65185;21.060;105.826;2023-01-10T01:23:06;224.57;;;124.32;;
76357;SDS011;65185;21.060;105.826;2023-01-10T01:25:34;219.55;;;121.88;;
76357;SDS011;65185;21.060;105.826;2023-01-10T01:28:00;212.50;;;118.22;;
76357;SDS011;65185;21.060;105.826;2023-01-10T01:30:27;211.38;;;119.07;;
76357;SDS011;65185;21.060;105.826;2023-01-10T01:32:54;203.30;;;117.18;;
76357;SDS011;65185;21.060;105.826;2023-01-10T01:35:21;222.38;;;122.43;;
76357;SDS011;65185;21.060;105.826;2023-01-10T01:37:49;223.07;;;123.57;;
76357;SDS011;65185;21.060;105.826;2023-01-10T01:40:17;209.55;;;117.55;;
76357;SDS011;65185;21.060;105.826;2023-01-10T01:42:46;207.73;;;119.60;;
76357;SDS011;65185;21.060;105.826;2023-01-10T01:47:54;220.43;;;122.60;;
76357;SDS011;65185;21.060;105.826;2023-01-10T01:52:59;255.50;;;133.63;;
76357;SDS011;65185;21.060;105.826;2023-01-10T01:55:28;228.27;;;126.18;;
76357;SDS011;65185;21.060;105.826;2023-01-10T01:57:58;224.10;;;127.10;;
76357;SDS011;65185;21.060;105.826;2023-01-10T02:00:29;235.57;;;130.40;;
76357;SDS011;65185;21.060;105.826;2023-01-10T02:02:56;237.02;;;127.90;;
76357;SDS011;65185;21.060;105.826;2023-01-10T02:05:24;235.60;;;130.25;;
76357;SDS011;65185;21.060;105.826;2023-01-10T02:07:55;251.52;;;136.32;;
76357;SDS011;65185;21.060;105.826;2023-01-10T02:10:40;245.38;;;135.20;;
76357;SDS011;65185;21.060;105.826;2023-01-10T02:13:18;240.02;;;130.68;;
76357;SDS011;65185;21.060;105.826;2023-01-10T02:15:49;233.82;;;131.93;;
76357;SDS011;65185;21.060;105.826;2023-01-10T02:18:15;251.85;;;132.93;;
76357;SDS011;65185;21.060;105.826;2023-01-10T02:24:07;239.20;;;133.52;;
76357;SDS011;65185;21.060;105.826;2023-01-10T02:30:15;250.82;;;138.68;;
76357;SDS011;65185;21.060;105.826;2023-01-10T02:35:51;239.95;;;133.30;;
76357;SDS011;65185;21.060;105.826;2023-01-10T02:41:04;236.07;;;135.25;;
76357;SDS011;65185;21.060;105.826;2023-01-10T02:44:07;248.10;;;142.73;;
76357;SDS011;65185;21.060;105.826;2023-01-10T02:46:49;243.52;;;140.30;;
76357;SDS011;65185;21.060;105.826;2023-01-10T02:49:17;249.40;;;144.65;;
76357;SDS011;65185;21.060;105.826;2023-01-10T02:51:44;243.98;;;140.07;;
76357;SDS011;65185;21.060;105.826;2023-01-10T02:54:20;270.58;;;147.23;;
76357;SDS011;65185;21.060;105.826;2023-01-10T03:05:29;248.63;;;140.73;;
76357;SDS011;65185;21.060;105.826;2023-01-10T03:08:17;253.68;;;143.60;;
76357;SDS011;65185;21.060;105.826;2023-01-10T03:16:23;239.60;;;134.60;;
76357;SDS011;65185;21.060;105.826;2023-01-10T03:18:58;238.48;;;135.52;;
76357;SDS011;65185;21.060;105.826;2023-01-10T03:21:33;232.52;;;131.27;;
76357;SDS011;65185;21.060;105.826;2023-01-10T03:24:02;215.68;;;129.32;;
76357;SDS011;65185;21.060;105.826;2023-01-10T03:26:55;237.90;;;136.05;;
76357;SDS011;65185;21.060;105.826;2023-01-10T03:32:33;217.55;;;130.13;;
76357;SDS011;65185;21.060;105.826;2023-01-10T03:35:00;231.07;;;130.98;;
76357;SDS011;65185;21.060;105.826;2023-01-10T03:37:37;204.98;;;125.38;;
76357;SDS011;65185;21.060;105.826;2023-01-10T03:40:25;200.45;;;120.03;;
76357;SDS011;65185;21.060;105.826;2023-01-10T03:46:17;170.52;;;107.75;;
76357;SDS011;65185;21.060;105.826;2023-01-10T03:48:58;126.22;;;82.20;;
76357;SDS011;65185;21.060;105.826;2023-01-10T03:51:32;127.63;;;82.22;;
76357;SDS011;65185;21.060;105.826;2023-01-10T03:54:03;126.65;;;80.10;;
76357;SDS011;65185;21.060;105.826;2023-01-10T03:56:30;115.20;;;75.47;;
76357;SDS011;65185;21.060;105.826;2023-01-10T03:59:08;102.30;;;67.15;;
76357;SDS011;65185;21.060;105.826;2023-01-10T04:01:35;99.38;;;63.53;;
76357;SDS011;65185;21.060;105.826;2023-01-10T04:04:02;95.75;;;61.22;;
76357;SDS011;65185;21.060;105.826;2023-01-10T04:06:29;100.28;;;63.55;;
76357;SDS011;65185;21.060;105.826;2023-01-10T04:08:56;101.75;;;65.28;;
76357;SDS011;65185;21.060;105.826;2023-01-10T04:14:44;96.90;;;61.97;;
76357;SDS011;65185;21.060;105.826;2023-01-10T04:17:12;96.15;;;58.40;;
76357;SDS011;65185;21.060;105.826;2023-01-10T04:19:46;95.10;;;57.67;;
76357;SDS011;65185;21.060;105.826;2023-01-10T04:22:24;96.32;;;58.78;;
76357;SDS011;65185;21.060;105.826;2023-01-10T04:24:54;101.07;;;61.95;;
76357;SDS011;65185;21.060;105.826;2023-01-10T04:27:24;103.70;;;62.70;;
76357;SDS011;65185;21.060;105.826;2023-01-10T04:29:54;96.03;;;62.85;;
76357;SDS011;65185;21.060;105.826;2023-01-10T04:32:21;108.55;;;65.82;;
76357;SDS011;65185;21.060;105.826;2023-01-10T04:34:48;110.20;;;66.10;;
76357;SDS011;65185;21.060;105.826;2023-01-10T04:37:15;108.15;;;64.43;;
76357;SDS011;65185;21.060;105.826;2023-01-10T04:39:42;94.47;;;58.70;;
76357;SDS011;65185;21.060;105.826;2023-01-10T04:42:09;86.55;;;55.55;;
76357;SDS011;65185;21.060;105.826;2023-01-10T04:44:36;97.53;;;59.42;;
76357;SDS011;65185;21.060;105.826;2023-01-10T04:47:03;100.30;;;61.38;;
76357;SDS011;65185;21.060;105.826;2023-01-10T04:49:30;88.07;;;57.13;;
76357;SDS011;65185;21.060;105.826;2023-01-10T04:51:57;97.88;;;58.75;;
76357;SDS011;65185;21.060;105.826;2023-01-10T04:54:24;85.32;;;55.25;;
76357;SDS011;65185;21.060;105.826;2023-01-10T04:56:51;85.82;;;56.30;;
76357;SDS011;65185;21.060;105.826;2023-01-10T04:59:18;86.32;;;54.60;;
76357;SDS011;65185;21.060;105.826;2023-01-10T05:01:58;78.30;;;51.53;;
76357;SDS011;65185;21.060;105.826;2023-01-10T05:04:29;84.70;;;52.58;;
76357;SDS011;65185;21.060;105.826;2023-01-10T05:07:02;87.00;;;53.17;;
76357;SDS011;65185;21.060;105.826;2023-01-10T05:09:28;81.00;;;50.33;;
76357;SDS011;65185;21.060;105.826;2023-01-10T05:11:55;60.95;;;40.75;;
76357;SDS011;65185;21.060;105.826;2023-01-10T05:14:22;64.22;;;41.42;;
76357;SDS011;65185;21.060;105.826;2023-01-10T05:16:49;63.72;;;40.88;;
76357;SDS011;65185;21.060;105.826;2023-01-10T05:19:16;64.78;;;41.72;;
76357;SDS011;65185;21.060;105.826;2023-01-10T05:21:42;67.97;;;43.22;;
76357;SDS011;65185;21.060;105.826;2023-01-10T05:24:09;72.90;;;45.20;;
76357;SDS011;65185;21.060;105.826;2023-01-10T05:26:36;70.45;;;44.65;;
76357;SDS011;65185;21.060;105.826;2023-01-10T05:29:02;67.18;;;43.90;;
76357;SDS011;65185;21.060;105.826;2023-01-10T05:31:29;65.40;;;42.58;;
76357;SDS011;65185;21.060;105.826;2023-01-10T05:33:55;64.57;;;41.97;;
76357;SDS011;65185;21.060;105.826;2023-01-10T05:36:22;67.45;;;43.78;;
76357;SDS011;65185;21.060;105.826;2023-01-10T05:38:48;76.07;;;48.90;;
76357;SDS011;65185;21.060;105.826;2023-01-10T05:41:15;69.05;;;44.00;;
76357;SDS011;65185;21.060;105.826;2023-01-10T05:43:42;68.72;;;43.78;;
76357;SDS011;65185;21.060;105.826;2023-01-10T05:46:08;77.80;;;47.78;;
76357;SDS011;65185;21.060;105.826;2023-01-10T05:48:35;70.70;;;44.33;;
76357;SDS011;65185;21.060;105.826;2023-01-10T05:51:02;67.47;;;44.33;;
76357;SDS011;65185;21.060;105.826;2023-01-10T05:53:34;69.03;;;42.47;;
76357;SDS011;65185;21.060;105.826;2023-01-10T05:56:01;70.10;;;45.50;;
76357;SDS011;65185;21.060;105.826;2023-01-10T05:58:28;79.60;;;49.15;;
76357;SDS011;65185;21.060;105.826;2023-01-10T06:00:56;76.30;;;47.35;;
76357;SDS011;65185;21.060;105.826;2023-01-10T06:03:23;81.43;;;49.65;;
76357;SDS011;65185;21.060;105.826;2023-01-10T06:05:53;72.03;;;47.90;;
76357;SDS011;65185;21.060;105.826;2023-01-10T06:08:20;81.95;;;51.00;;
76357;SDS011;65185;21.060;105.826;2023-01-10T06:10:48;76.40;;;50.67;;
76357;SDS011;65185;21.060;105.826;2023-01-10T06:13:15;73.07;;;46.60;;
76357;SDS011;65185;21.060;105.826;2023-01-10T06:15:42;73.72;;;46.70;;
76357;SDS011;65185;21.060;105.826;2023-01-10T06:18:09;68.15;;;44.60;;
76357;SDS011;65185;21.060;105.826;2023-01-10T06:20:36;68.55;;;44.22;;
76357;SDS011;65185;21.060;105.826;2023-01-10T06:23:06;70.55;;;47.05;;
76357;SDS011;65185;21.060;105.826;2023-01-10T06:25:33;69.95;;;46.63;;
76357;SDS011;65185;21.060;105.826;2023-01-10T06:28:07;72.38;;;47.50;;
76357;SDS011;65185;21.060;105.826;2023-01-10T06:30:34;70.72;;;46.17;;
76357;SDS011;65185;21.060;105.826;2023-01-10T06:33:02;66.38;;;44.00;;
76357;SDS011;65185;21.060;105.826;2023-01-10T06:35:29;68.55;;;43.00;;
76357;SDS011;65185;21.060;105.826;2023-01-10T06:37:57;67.68;;;42.53;;
76357;SDS011;65185;21.060;105.826;2023-01-10T06:40:24;71.65;;;46.08;;
76357;SDS011;65185;21.060;105.826;2023-01-10T06:42:51;76.32;;;46.47;;
76357;SDS011;65185;21.060;105.826;2023-01-10T06:45:18;73.88;;;43.55;;
76357;SDS011;65185;21.060;105.826;2023-01-10T06:47:45;73.40;;;44.63;;
76357;SDS011;65185;21.060;105.826;2023-01-10T06:50:12;72.97;;;45.33;;
76357;SDS011;65185;21.060;105.826;2023-01-10T06:52:39;71.95;;;45.88;;
76357;SDS011;65185;21.060;105.826;2023-01-10T06:55:06;67.00;;;42.58;;
76357;SDS011;65185;21.060;105.826;2023-01-10T06:57:33;67.65;;;42.42;;
76357;SDS011;65185;21.060;105.826;2023-01-10T07:02:32;64.22;;;40.85;;
76357;SDS011;65185;21.060;105.826;2023-01-10T07:04:59;59.42;;;39.22;;
76357;SDS011;65185;21.060;105.826;2023-01-10T07:07:26;59.72;;;38.80;;
76357;SDS011;65185;21.060;105.826;2023-01-10T07:09:52;76.28;;;46.00;;
76357;SDS011;65185;21.060;105.826;2023-01-10T07:12:19;68.65;;;44.80;;
76357;SDS011;65185;21.060;105.826;2023-01-10T07:14:45;68.22;;;42.92;;
76357;SDS011;65185;21.060;105.826;2023-01-10T07:17:12;60.83;;;39.58;;
76357;SDS011;65185;21.060;105.826;2023-01-10T07:19:39;61.35;;;39.55;;
76357;SDS011;65185;21.060;105.826;2023-01-10T07:22:05;66.32;;;41.47;;
76357;SDS011;65185;21.060;105.826;2023-01-10T07:24:32;58.78;;;38.03;;
76357;SDS011;65185;21.060;105.826;2023-01-10T07:26:59;76.22;;;47.35;;
76357;SDS011;65185;21.060;105.826;2023-01-10T07:29:26;85.65;;;54.65;;
76357;SDS011;65185;21.060;105.826;2023-01-10T07:31:52;87.25;;;56.38;;
76357;SDS011;65185;21.060;105.826;2023-01-10T07:34:19;85.70;;;55.80;;
76357;SDS011;65185;21.060;105.826;2023-01-10T07:36:46;89.15;;;59.58;;
76357;SDS011;65185;21.060;105.826;2023-01-10T07:39:12;83.22;;;56.72;;
76357;SDS011;65185;21.060;105.826;2023-01-10T07:41:39;89.45;;;57.75;;
76357;SDS011;65185;21.060;105.826;2023-01-10T07:44:08;88.70;;;58.17;;
76357;SDS011;65185;21.060;105.826;2023-01-10T07:46:36;86.57;;;57.60;;
76357;SDS011;65185;21.060;105.826;2023-01-10T07:49:02;91.95;;;60.53;;
76357;SDS011;65185;21.060;105.826;2023-01-10T07:51:32;93.65;;;61.65;;
76357;SDS011;65185;21.060;105.826;2023-01-10T07:53:59;90.32;;;58.80;;
76357;SDS011;65185;21.060;105.826;2023-01-10T07:56:25;89.75;;;57.58;;
76357;SDS011;65185;21.060;105.826;2023-01-10T07:58:56;87.38;;;56.63;;
76357;SDS011;65185;21.060;105.826;2023-01-10T08:01:23;86.18;;;57.13;;
76357;SDS011;65185;21.060;105.826;2023-01-10T08:03:50;81.80;;;55.08;;
76357;SDS011;65185;21.060;105.826;2023-01-10T08:06:17;90.53;;;59.28;;
76357;SDS011;65185;21.060;105.826;2023-01-10T08:08:44;93.85;;;61.58;;
76357;SDS011;65185;21.060;105.826;2023-01-10T08:11:10;97.05;;;61.40;;
76357;SDS011;65185;21.060;105.826;2023-01-10T08:13:37;108.53;;;70.75;;
76357;SDS011;65185;21.060;105.826;2023-01-10T08:16:04;103.88;;;66.90;;
76357;SDS011;65185;21.060;105.826;2023-01-10T08:18:31;109.57;;;69.90;;
76357;SDS011;65185;21.060;105.826;2023-01-10T08:20:58;103.13;;;67.80;;
76357;SDS011;65185;21.060;105.826;2023-01-10T08:23:25;96.53;;;64.10;;
76357;SDS011;65185;21.060;105.826;2023-01-10T08:25:52;92.25;;;62.38;;
76357;SDS011;65185;21.060;105.826;2023-01-10T08:28:19;105.32;;;70.13;;
76357;SDS011;65185;21.060;105.826;2023-01-10T08:30:46;107.47;;;71.07;;
76357;SDS011;65185;21.060;105.826;2023-01-10T08:33:12;103.40;;;69.13;;
76357;SDS011;65185;21.060;105.826;2023-01-10T08:35:40;96.43;;;62.92;;
76357;SDS011;65185;21.060;105.826;2023-01-10T08:38:08;95.68;;;63.55;;
76357;SDS011;65185;21.060;105.826;2023-01-10T08:40:36;100.93;;;66.43;;
76357;SDS011;65185;21.060;105.826;2023-01-10T08:43:04;99.47;;;67.60;;
76357;SDS011;65185;21.060;105.826;2023-01-10T08:47:59;95.97;;;63.60;;
76357;SDS011;65185;21.060;105.826;2023-01-10T08:50:26;94.40;;;66.22;;
76357;SDS011;65185;21.060;105.826;2023-01-10T08:52:53;102.07;;;67.85;;
76357;SDS011;65185;21.060;105.826;2023-01-10T08:55:21;95.32;;;64.57;;
76357;SDS011;65185;21.060;105.826;2023-01-10T08:57:48;109.47;;;67.60;;
76357;SDS011;65185;21.060;105.826;2023-01-10T09:00:15;101.00;;;67.47;;
76357;SDS011;65185;21.060;105.826;2023-01-10T09:02:42;92.68;;;61.55;;
76357;SDS011;65185;21.060;105.826;2023-01-10T09:05:09;101.95;;;65.00;;
76357;SDS011;65185;21.060;105.826;2023-01-10T09:07:36;91.80;;;63.17;;
76357;SDS011;65185;21.060;105.826;2023-01-10T09:10:05;91.85;;;62.55;;
76357;SDS011;65185;21.060;105.826;2023-01-10T09:12:33;99.82;;;64.20;;
76357;SDS011;65185;21.060;105.826;2023-01-10T09:15:18;92.30;;;61.88;;
76357;SDS011;65185;21.060;105.826;2023-01-10T09:18:09;93.30;;;60.30;;
76357;SDS011;65185;21.060;105.826;2023-01-10T09:20:38;92.85;;;57.63;;
76357;SDS011;65185;21.060;105.826;2023-01-10T09:23:07;92.25;;;58.72;;
76357;SDS011;65185;21.060;105.826;2023-01-10T09:25:35;88.10;;;58.85;;
76357;SDS011;65185;21.060;105.826;2023-01-10T09:28:03;93.57;;;60.45;;
76357;SDS011;65185;21.060;105.826;2023-01-10T09:30:31;94.50;;;60.28;;
76357;SDS011;65185;21.060;105.826;2023-01-10T09:32:57;109.97;;;69.75;;
76357;SDS011;65185;21.060;105.826;2023-01-10T09:35:27;113.00;;;72.75;;
76357;SDS011;65185;21.060;105.826;2023-01-10T09:37:56;113.68;;;74.30;;
76357;SDS011;65185;21.060;105.826;2023-01-10T09:43:27;109.38;;;71.88;;
76357;SDS011;65185;21.060;105.826;2023-01-10T09:51:56;108.10;;;71.97;;
76357;SDS011;65185;21.060;105.826;2023-01-10T09:54:40;104.57;;;70.32;;
76357;SDS011;65185;21.060;105.826;2023-01-10T09:57:17;109.82;;;74.70;;
76357;SDS011;65185;21.060;105.826;2023-01-10T09:59:46;116.88;;;77.47;;
76357;SDS011;65185;21.060;105.826;2023-01-10T10:02:20;126.95;;;83.20;;
76357;SDS011;65185;21.060;105.826;2023-01-10T10:04:58;131.07;;;88.85;;
76357;SDS011;65185;21.060;105.826;2023-01-10T10:07:33;119.88;;;80.70;;
76357;SDS011;65185;21.060;105.826;2023-01-10T10:10:00;119.18;;;76.50;;
76357;SDS011;65185;21.060;105.826;2023-01-10T10:15:21;101.55;;;67.95;;
76357;SDS011;65185;21.060;105.826;2023-01-10T10:26:03;83.03;;;56.58;;
76357;SDS011;65185;21.060;105.826;2023-01-10T10:37:11;87.28;;;55.60;;
76357;SDS011;65185;21.060;105.826;2023-01-10T10:42:27;85.25;;;55.13;;
76357;SDS011;65185;21.060;105.826;2023-01-10T10:45:04;78.18;;;52.65;;
76357;SDS011;65185;21.060;105.826;2023-01-10T10:47:42;81.93;;;53.72;;
76357;SDS011;65185;21.060;105.826;2023-01-10T10:52:50;85.55;;;56.30;;
76357;SDS011;65185;21.060;105.826;2023-01-10T10:55:18;82.43;;;55.47;;
76357;SDS011;65185;21.060;105.826;2023-01-10T10:57:58;81.80;;;53.80;;
76357;SDS011;65185;21.060;105.826;2023-01-10T11:00:26;83.22;;;57.42;;
76357;SDS011;65185;21.060;105.826;2023-01-10T11:03:02;82.88;;;58.22;;
76357;SDS011;65185;21.060;105.826;2023-01-10T11:05:34;85.53;;;58.58;;
76357;SDS011;65185;21.060;105.826;2023-01-10T11:08:05;87.00;;;58.85;;
76357;SDS011;65185;21.060;105.826;2023-01-10T11:10:37;92.32;;;61.55;;
76357;SDS011;65185;21.060;105.826;2023-01-10T11:15:50;94.68;;;63.42;;
76357;SDS011;65185;21.060;105.826;2023-01-10T11:18:18;88.65;;;60.95;;
76357;SDS011;65185;21.060;105.826;2023-01-10T11:23:35;93.43;;;65.18;;
76357;SDS011;65185;21.060;105.826;2023-01-10T11:26:24;95.60;;;66.97;;
76357;SDS011;65185;21.060;105.826;2023-01-10T11:28:52;105.85;;;70.70;;
76357;SDS011;65185;21.060;105.826;2023-01-10T11:31:39;97.50;;;64.90;;
76357;SDS011;65185;21.060;105.826;2023-01-10T11:36:58;105.60;;;69.72;;
76357;SDS011;65185;21.060;105.826;2023-01-10T11:39:44;104.53;;;72.38;;
76357;SDS011;65185;21.060;105.826;2023-01-10T11:42:44;112.50;;;76.22;;
76357;SDS011;65185;21.060;105.826;2023-01-10T11:47:44;110.53;;;76.60;;
76357;SDS011;65185;21.060;105.826;2023-01-10T11:50:26;118.10;;;79.93;;
76357;SDS011;65185;21.060;105.826;2023-01-10T11:52:56;118.65;;;81.63;;
76357;SDS011;65185;21.060;105.826;2023-01-10T11:55:27;118.63;;;80.95;;
76357;SDS011;65185;21.060;105.826;2023-01-10T11:58:17;120.20;;;83.20;;
76357;SDS011;65185;21.060;105.826;2023-01-10T12:00:44;123.45;;;83.45;;
76357;SDS011;65185;21.060;105.826;2023-01-10T12:03:16;117.63;;;80.97;;
76357;SDS011;65185;21.060;105.826;2023-01-10T12:06:00;114.65;;;78.43;;
76357;SDS011;65185;21.060;105.826;2023-01-10T12:08:37;109.47;;;76.45;;
76357;SDS011;65185;21.060;105.826;2023-01-10T12:13:58;121.25;;;81.15;;
76357;SDS011;65185;21.060;105.826;2023-01-10T12:16:31;113.32;;;76.72;;
76357;SDS011;65185;21.060;105.826;2023-01-10T12:19:06;114.50;;;75.80;;
76357;SDS011;65185;21.060;105.826;2023-01-10T12:21:40;120.13;;;79.97;;
76357;SDS011;65185;21.060;105.826;2023-01-10T12:24:21;115.57;;;76.82;;
76357;SDS011;65185;21.060;105.826;2023-01-10T12:26:48;116.03;;;78.13;;
76357;SDS011;65185;21.060;105.826;2023-01-10T12:29:22;121.97;;;80.80;;
76357;SDS011;65185;21.060;105.826;2023-01-10T12:31:54;122.55;;;83.70;;
76357;SDS011;65185;21.060;105.826;2023-01-10T12:34:30;113.60;;;76.43;;
76357;SDS011;65185;21.060;105.826;2023-01-10T12:37:17;121.00;;;80.22;;
76357;SDS011;65185;21.060;105.826;2023-01-10T12:42:54;107.53;;;71.82;;
76357;SDS011;65185;21.060;105.826;2023-01-10T12:45:50;116.63;;;78.47;;
76357;SDS011;65185;21.060;105.826;2023-01-10T12:49:27;121.03;;;79.65;;
76357;SDS011;65185;21.060;105.826;2023-01-10T12:51:42;113.28;;;76.63;;
76357;SDS011;65185;21.060;105.826;2023-01-10T12:54:31;117.95;;;76.50;;
76357;SDS011;65185;21.060;105.826;2023-01-10T12:56:59;118.30;;;79.25;;
76357;SDS011;65185;21.060;105.826;2023-01-10T12:59:31;116.13;;;79.07;;
76357;SDS011;65185;21.060;105.826;2023-01-10T13:02:03;128.32;;;84.28;;
76357;SDS011;65185;21.060;105.826;2023-01-10T13:04:38;117.85;;;78.15;;
76357;SDS011;65185;21.060;105.826;2023-01-10T13:07:09;123.82;;;80.82;;
76357;SDS011;65185;21.060;105.826;2023-01-10T13:09:37;119.55;;;77.65;;
76357;SDS011;65185;21.060;105.826;2023-01-10T13:14:50;120.78;;;77.55;;
76357;SDS011;65185;21.060;105.826;2023-01-10T13:17:32;118.70;;;78.90;;
76357;SDS011;65185;21.060;105.826;2023-01-10T13:22:53;114.75;;;74.05;;
76357;SDS011;65185;21.060;105.826;2023-01-10T13:25:34;115.05;;;76.50;;
76357;SDS011;65185;21.060;105.826;2023-01-10T13:28:13;112.22;;;73.75;;
76357;SDS011;65185;21.060;105.826;2023-01-10T13:30:55;117.22;;;78.35;;
76357;SDS011;65185;21.060;105.826;2023-01-10T13:33:26;116.88;;;75.88;;
76357;SDS011;65185;21.060;105.826;2023-01-10T13:36:09;112.70;;;75.85;;
76357;SDS011;65185;21.060;105.826;2023-01-10T13:38:54;119.25;;;78.47;;
76357;SDS011;65185;21.060;105.826;2023-01-10T13:45:24;116.38;;;77.78;;
76357;SDS011;65185;21.060;105.826;2023-01-10T13:57:53;128.90;;;82.28;;
76357;SDS011;65185;21.060;105.826;2023-01-10T14:00:26;123.15;;;79.82;;
76357;SDS011;65185;21.060;105.826;2023-01-10T14:04:25;120.55;;;79.32;;
76357;SDS011;65185;21.060;105.826;2023-01-10T14:14:19;125.50;;;80.72;;
76357;SDS011;65185;21.060;105.826;2023-01-10T14:16:54;117.95;;;76.97;;
76357;SDS011;65185;21.060;105.826;2023-01-10T14:19:37;124.75;;;83.47;;
76357;SDS011;65185;21.060;105.826;2023-01-10T14:22:19;114.03;;;78.03;;
76357;SDS011;65185;21.060;105.826;2023-01-10T14:25:00;117.80;;;76.88;;
76357;SDS011;65185;21.060;105.826;2023-01-10T14:27:42;113.47;;;76.13;;
76357;SDS011;65185;21.060;105.826;2023-01-10T14:30:20;117.35;;;77.57;;
76357;SDS011;65185;21.060;105.826;2023-01-10T14:32:48;112.40;;;73.55;;
76357;SDS011;65185;21.060;105.826;2023-01-10T14:35:19;114.95;;;77.80;;
76357;SDS011;65185;21.060;105.826;2023-01-10T14:37:57;113.13;;;74.85;;
76357;SDS011;65185;21.060;105.826;2023-01-10T14:40:28;113.40;;;75.28;;
76357;SDS011;65185;21.060;105.826;2023-01-10T14:43:06;108.30;;;71.32;;
76357;SDS011;65185;21.060;105.826;2023-01-10T14:45:48;105.57;;;71.38;;
76357;SDS011;65185;21.060;105.826;2023-01-10T14:48:30;108.00;;;72.28;;
76357;SDS011;65185;21.060;105.826;2023-01-10T14:53:55;101.82;;;67.28;;
76357;SDS011;65185;21.060;105.826;2023-01-10T14:56:44;105.00;;;71.68;;
76357;SDS011;65185;21.060;105.826;2023-01-10T15:01:49;110.95;;;73.35;;
76357;SDS011;65185;21.060;105.826;2023-01-10T15:04:19;109.50;;;73.30;;
76357;SDS011;65185;21.060;105.826;2023-01-10T15:06:55;112.47;;;72.07;;
76357;SDS011;65185;21.060;105.826;2023-01-10T15:09:28;106.38;;;69.38;;
76357;SDS011;65185;21.060;105.826;2023-01-10T15:11:56;112.75;;;72.90;;
76357;SDS011;65185;21.060;105.826;2023-01-10T15:14:25;107.22;;;72.82;;
76357;SDS011;65185;21.060;105.826;2023-01-10T15:16:55;110.63;;;74.57;;
76357;SDS011;65185;21.060;105.826;2023-01-10T15:19:28;108.57;;;72.05;;
76357;SDS011;65185;21.060;105.826;2023-01-10T15:22:01;113.10;;;75.35;;
76357;SDS011;65185;21.060;105.826;2023-01-10T15:24:40;107.85;;;73.15;;
76357;SDS011;65185;21.060;105.826;2023-01-10T15:27:11;111.47;;;75.72;;
76357;SDS011;65185;21.060;105.826;2023-01-10T15:29:40;104.32;;;71.80;;
76357;SDS011;65185;21.060;105.826;2023-01-10T15:32:17;106.13;;;70.55;;
76357;SDS011;65185;21.060;105.826;2023-01-10T15:35:04;105.63;;;69.72;;
76357;SDS011;65185;21.060;105.826;2023-01-10T15:37:36;102.80;;;67.72;;
76357;SDS011;65185;21.060;105.826;2023-01-10T15:40:06;107.15;;;71.40;;
76357;SDS011;65185;21.060;105.826;2023-01-10T15:42:45;108.07;;;71.63;;
76357;SDS011;65185;21.060;105.826;2023-01-10T15:48:02;105.10;;;69.68;;
76357;SDS011;65185;21.060;105.826;2023-01-10T15:50:31;113.07;;;72.70;;
76357;SDS011;65185;21.060;105.826;2023-01-10T15:52:59;106.05;;;71.13;;
76357;SDS011;65185;21.060;105.826;2023-01-10T15:55:34;112.97;;;74.65;;
76357;SDS011;65185;21.060;105.826;2023-01-10T15:58:12;110.97;;;70.88;;
76357;SDS011;65185;21.060;105.826;2023-01-10T16:00:44;111.82;;;73.35;;
76357;SDS011;65185;21.060;105.826;2023-01-10T16:03:34;111.80;;;74.70;;
76357;SDS011;65185;21.060;105.826;2023-01-10T16:06:04;116.00;;;74.32;;
76357;SDS011;65185;21.060;105.826;2023-01-10T16:08:37;111.00;;;71.93;;
76357;SDS011;65185;21.060;105.826;2023-01-10T16:11:05;107.68;;;71.47;;
76357;SDS011;65185;21.060;105.826;2023-01-10T16:13:33;109.35;;;73.82;;
76357;SDS011;65185;21.060;105.826;2023-01-10T16:16:02;113.22;;;74.05;;
76357;SDS011;65185;21.060;105.826;2023-01-10T16:18:35;115.20;;;75.63;;
76357;SDS011;65185;21.060;105.826;2023-01-10T16:21:02;109.00;;;74.25;;
76357;SDS011;65185;21.060;105.826;2023-01-10T16:23:35;106.32;;;71.50;;
76357;SDS011;65185;21.060;105.826;2023-01-10T16:26:03;112.60;;;75.65;;